createdAt,value
2022-12-13T00:02:02.094Z,94879.44
2022-12-13T00:05:04.412Z,94876.41
2022-12-13T00:08:06.458Z,94883.25
2022-12-13T00:11:12.004Z,94883.63
2022-12-13T00:14:14.158Z,94875.63
2022-12-13T00:17:17.831Z,94877.25
2022-12-13T00:20:20.058Z,94869.34
2022-12-13T00:23:21.983Z,94873.97
2022-12-13T00:26:26.365Z,94870.91
2022-12-13T00:29:28.516Z,94864.81
2022-12-13T00:32:31.900Z,94863.63
2022-12-13T00:35:34.403Z,94855.34
2022-12-13T00:38:37.085Z,94853.56
2022-12-13T00:41:39.126Z,94861.78
2022-12-13T00:44:41.190Z,94863.00
2022-12-13T00:47:45.798Z,94862.13
2022-12-13T00:50:47.760Z,94862.44
2022-12-13T00:53:50.141Z,94853.00
2022-12-13T00:56:52.046Z,94854.63
2022-12-13T00:59:53.964Z,94847.63
2022-12-13T01:02:57.284Z,94849.38
2022-12-13T01:06:16.259Z,94845.94
2022-12-13T01:09:20.498Z,94848.25
2022-12-13T01:12:22.488Z,94847.03
2022-12-13T01:15:24.422Z,94843.81
2022-12-13T01:18:27.724Z,94843.25
2022-12-13T01:21:29.866Z,94846.50
2022-12-13T01:24:32.512Z,94840.75
2022-12-13T01:27:34.432Z,94830.91
2022-12-13T01:30:36.636Z,94832.97
2022-12-13T01:33:40.515Z,94838.50
2022-12-13T01:36:44.405Z,94831.97
2022-12-13T01:39:46.398Z,94829.66
2022-12-13T01:42:48.342Z,94829.66
2022-12-13T01:45:50.377Z,94819.03
2022-12-13T01:49:01.660Z,94823.50
2022-12-13T01:52:08.147Z,94821.72
2022-12-13T01:55:12.110Z,94817.53
2022-12-13T01:58:15.070Z,94812.81
2022-12-13T02:01:18.028Z,94811.22
2022-12-13T02:04:29.177Z,94817.13
2022-12-13T02:07:33.974Z,94809.00
2022-12-13T02:10:36.311Z,94814.41
2022-12-13T02:13:40.861Z,94809.31
2022-12-13T02:16:53.476Z,94809.81
2022-12-13T02:20:30.827Z,94801.88
2022-12-13T02:24:12.427Z,94818.19
2022-12-13T02:27:31.164Z,94806.97
2022-12-13T02:30:39.606Z,94807.72
2022-12-13T02:33:52.921Z,94799.44
2022-12-13T02:37:01.927Z,94790.25
2022-12-13T02:40:08.980Z,94791.34
2022-12-13T02:43:16.796Z,94784.81
2022-12-13T02:46:29.155Z,94783.03
2022-12-13T02:49:35.044Z,94770.84
2022-12-13T02:52:39.464Z,94765.09
2022-12-13T02:55:41.407Z,94762.88
2022-12-13T02:58:47.581Z,94760.19
2022-12-13T03:02:10.496Z,94752.53
2022-12-13T03:05:24.018Z,94753.34
2022-12-13T03:08:31.526Z,94748.03
2022-12-13T03:11:45.251Z,94748.31
2022-12-13T03:14:56.542Z,94746.25
2022-12-13T03:18:03.845Z,94745.72
2022-12-13T03:21:07.884Z,94735.97
2022-12-13T03:24:09.975Z,94742.91
2022-12-13T03:27:12.422Z,94738.19
2022-12-13T03:30:14.412Z,94743.00
2022-12-13T03:33:17.786Z,94736.41
2022-12-13T03:36:20.116Z,94731.66
2022-12-13T03:39:24.111Z,94737.41
2022-12-13T03:42:26.239Z,94731.78
2022-12-13T03:45:28.616Z,94726.09
2022-12-13T03:48:31.993Z,94716.69
2022-12-13T03:51:33.978Z,94718.66
2022-12-13T03:54:36.493Z,94714.81
2022-12-13T03:57:38.461Z,94711.94
2022-12-13T04:00:40.496Z,94709.75
2022-12-13T04:03:45.845Z,94704.56
2022-12-13T04:06:47.844Z,94710.38
2022-12-13T04:09:49.813Z,94705.56
2022-12-13T04:12:52.007Z,94695.53
2022-12-13T04:15:54.038Z,94698.47
2022-12-13T04:18:57.352Z,94690.50
2022-12-13T04:21:59.361Z,94683.63
2022-12-13T04:25:01.361Z,94690.94
2022-12-13T04:28:03.392Z,94685.41
2022-12-13T04:31:05.670Z,94690.81
2022-12-13T04:34:09.105Z,94693.88
2022-12-13T04:37:11.063Z,94690.72
2022-12-13T04:40:12.994Z,94693.53
2022-12-13T04:43:23.820Z,94692.34
2022-12-13T04:46:25.769Z,94683.72
2022-12-13T04:49:29.165Z,94685.59
2022-12-13T04:52:31.492Z,94694.75
2022-12-13T04:55:33.466Z,94697.38
2022-12-13T04:58:35.558Z,94689.88
2022-12-13T05:01:37.708Z,94686.09
2022-12-13T05:04:41.036Z,94676.38
2022-12-13T05:07:43.180Z,94685.47
2022-12-13T05:10:45.293Z,94677.72
2022-12-13T05:13:47.573Z,94669.47
2022-12-13T05:16:49.584Z,94669.94
2022-12-13T05:19:52.923Z,94668.25
2022-12-13T05:22:56.095Z,94661.00
2022-12-13T05:25:58.086Z,94669.00
2022-12-13T05:29:00.327Z,94672.75
2022-12-13T05:32:02.916Z,94673.25
2022-12-13T05:35:07.405Z,94667.72
2022-12-13T05:38:09.359Z,94670.34
2022-12-13T05:41:16.334Z,94664.72
2022-12-13T05:44:18.295Z,94671.63
2022-12-13T05:47:20.281Z,94670.47
2022-12-13T05:50:24.100Z,94666.94
2022-12-13T05:53:30.551Z,94672.53
2022-12-13T05:56:34.969Z,94667.94
2022-12-13T05:59:36.872Z,94666.81
2022-12-13T06:02:39.551Z,94668.00
2022-12-13T06:05:43.420Z,94668.50
2022-12-13T06:08:45.336Z,94674.41
2022-12-13T06:11:47.649Z,94666.34
2022-12-13T06:14:49.517Z,94674.34
2022-12-13T06:17:51.471Z,94679.16
2022-12-13T06:20:58.504Z,94680.28
2022-12-13T06:24:01.943Z,94682.22
2022-12-13T06:27:04.159Z,94678.94
2022-12-13T06:30:06.862Z,94681.78
2022-12-13T06:33:09.049Z,94682.22
2022-12-13T06:36:16.638Z,94685.19
2022-12-13T06:39:19.092Z,94688.50
2022-12-13T06:42:21.761Z,94686.22
2022-12-13T06:45:25.122Z,94689.84
2022-12-13T06:48:27.126Z,94690.78
2022-12-13T06:51:32.690Z,94691.28
2022-12-13T06:54:35.280Z,94692.28
2022-12-13T06:57:37.224Z,94693.28
2022-12-13T07:00:48.324Z,94688.94
2022-12-13T07:03:51.416Z,94685.13
2022-12-13T07:06:54.763Z,94686.31
2022-12-13T07:09:56.894Z,94694.38
2022-12-13T07:12:58.882Z,94698.66
2022-12-13T07:16:01.352Z,94697.88
2022-12-13T07:19:03.629Z,94695.25
2022-12-13T07:22:06.988Z,94682.47
2022-12-13T07:25:28.053Z,94689.09
2022-12-13T07:28:33.313Z,94686.53
2022-12-13T07:31:35.793Z,94672.97
2022-12-13T07:34:37.924Z,94689.91
2022-12-13T07:37:41.252Z,94690.41
2022-12-13T07:40:43.304Z,94690.56
2022-12-13T07:43:45.369Z,94691.56
2022-12-13T07:46:48.768Z,94687.94
2022-12-13T07:49:50.767Z,94692.84
2022-12-13T07:52:54.531Z,94698.06
2022-12-13T07:55:56.428Z,94696.41
2022-12-13T07:58:58.382Z,94700.28
2022-12-13T08:02:01.771Z,94686.34
2022-12-13T08:05:25.900Z,94690.38
2022-12-13T08:08:31.327Z,94696.44
2022-12-13T08:11:34.005Z,94692.66
2022-12-13T08:14:35.920Z,94687.44
2022-12-13T08:17:37.913Z,94687.59
2022-12-13T08:20:39.782Z,94684.19
2022-12-13T08:23:43.120Z,94692.25
2022-12-13T08:26:45.445Z,94687.09
2022-12-13T08:29:47.476Z,94690.66
2022-12-13T08:32:50.408Z,94692.34
2022-12-13T08:35:52.319Z,94690.50
2022-12-13T08:38:57.166Z,94688.25
2022-12-13T08:41:59.088Z,94686.47
2022-12-13T08:45:17.525Z,94686.47
2022-12-13T08:48:19.901Z,94694.03
2022-12-13T08:51:25.711Z,94695.41
2022-12-13T08:54:33.059Z,94697.16
2022-12-13T08:57:35.832Z,94705.75
2022-12-13T09:00:38.339Z,94701.50
2022-12-13T09:03:40.586Z,94702.38
2022-12-13T09:06:43.201Z,94690.72
2022-12-13T09:09:46.470Z,94690.34
2022-12-13T09:13:01.507Z,94690.34
2022-12-13T09:16:05.518Z,94678.59
2022-12-13T09:19:26.250Z,94679.16
2022-12-13T09:22:33.527Z,94679.16
2022-12-13T09:25:37.838Z,94678.91
2022-12-13T09:28:41.104Z,94666.41
2022-12-13T09:31:47.078Z,94661.66
2022-12-13T09:34:53.012Z,94674.72
2022-12-13T09:37:55.676Z,94674.72
2022-12-13T09:41:03.106Z,94686.78
2022-12-13T09:44:32.187Z,94688.59
2022-12-13T09:47:39.179Z,94687.47
2022-12-13T09:50:58.308Z,94672.47
2022-12-13T09:54:18.296Z,94672.84
2022-12-13T09:57:32.333Z,94676.53
2022-12-13T10:00:36.732Z,94674.09
2022-12-13T10:03:41.575Z,94687.66
2022-12-13T10:06:43.555Z,94674.00
2022-12-13T10:09:46.370Z,94674.88
2022-12-13T10:12:55.153Z,94658.19
2022-12-13T10:15:59.475Z,94662.88
2022-12-13T10:19:29.251Z,94658.50
2022-12-13T10:22:32.056Z,94666.22
2022-12-13T10:25:47.298Z,94661.09
2022-12-13T10:29:04.392Z,94654.97
2022-12-13T10:32:12.545Z,94651.53
2022-12-13T10:35:24.649Z,94657.84
2022-12-13T10:38:32.026Z,94658.94
2022-12-13T10:41:36.471Z,94653.88
2022-12-13T10:44:39.751Z,94647.28
2022-12-13T10:47:43.094Z,94647.50
2022-12-13T10:50:56.994Z,94642.69
2022-12-13T10:54:00.806Z,94639.69
2022-12-13T10:57:02.928Z,94637.84
2022-12-13T11:00:31.041Z,94621.22
2022-12-13T11:03:34.830Z,94626.94
2022-12-13T11:06:43.576Z,94615.19
2022-12-13T11:09:45.734Z,94621.75
2022-12-13T11:13:00.680Z,94615.66
2022-12-13T11:16:05.356Z,94602.63
2022-12-13T11:19:16.927Z,94603.94
2022-12-13T11:22:21.743Z,94596.59
2022-12-13T11:25:27.106Z,94588.41
2022-12-13T11:28:55.885Z,94590.13
2022-12-13T11:32:08.489Z,94585.25
2022-12-13T11:35:17.542Z,94592.09
2022-12-13T11:38:28.366Z,94593.81
2022-12-13T11:41:35.131Z,94598.31
2022-12-13T11:44:47.857Z,94579.88
2022-12-13T11:47:59.779Z,94584.19
2022-12-13T11:51:02.344Z,94588.03
2022-12-13T11:54:11.038Z,94587.16
2022-12-13T11:57:17.312Z,94590.91
2022-12-13T12:00:35.055Z,94582.25
2022-12-13T12:03:44.045Z,94586.22
2022-12-13T12:06:51.169Z,94586.06
2022-12-13T12:09:57.477Z,94581.22
2022-12-13T12:13:07.540Z,94590.91
2022-12-13T12:16:18.743Z,94581.13
2022-12-13T12:19:24.645Z,94587.88
2022-12-13T12:22:39.883Z,94585.44
2022-12-13T12:25:51.544Z,94585.63
2022-12-13T12:29:12.160Z,94591.41
2022-12-13T12:32:26.147Z,94586.47
2022-12-13T12:35:45.894Z,94579.06
2022-12-13T12:39:26.353Z,94574.75
2022-12-13T12:43:13.914Z,94573.81
2022-12-13T12:46:27.287Z,94573.03
2022-12-13T12:50:19.826Z,94559.53
2022-12-13T12:53:33.462Z,94570.38
2022-12-13T12:56:42.307Z,94566.25
2022-12-13T12:59:48.285Z,94571.53
2022-12-13T13:03:01.806Z,94569.16
2022-12-13T13:06:09.580Z,94570.09
2022-12-13T13:09:17.398Z,94565.47
2022-12-13T13:12:29.605Z,94570.91
2022-12-13T13:15:54.269Z,94585.44
2022-12-13T13:18:57.209Z,94578.00
2022-12-13T13:22:01.601Z,94575.81
2022-12-13T13:25:31.505Z,94565.13
2022-12-13T13:28:33.712Z,94583.91
2022-12-13T13:32:00.932Z,94584.97
2022-12-13T13:35:49.301Z,94587.13
2022-12-13T13:38:52.755Z,94592.66
2022-12-13T13:42:08.028Z,94589.91
2022-12-13T13:45:21.274Z,94592.78
2022-12-13T13:48:37.347Z,94601.78
2022-12-13T13:55:48.791Z,94598.41
2022-12-13T13:59:29.610Z,94590.81
2022-12-13T14:03:32.877Z,94592.47
2022-12-13T14:07:15.555Z,94597.16
2022-12-13T14:10:28.600Z,94601.59
2022-12-13T14:14:21.635Z,94597.16
2022-12-13T14:18:01.926Z,94610.44
2022-12-13T14:21:13.101Z,94612.69
2022-12-13T14:24:22.331Z,94617.56
2022-12-13T14:27:39.352Z,94613.22
2022-12-13T14:30:48.283Z,94614.53
2022-12-13T14:34:01.520Z,94609.19
2022-12-13T14:37:06.291Z,94609.19
2022-12-13T14:40:26.083Z,94611.00
2022-12-13T14:43:30.298Z,94619.50
2022-12-13T14:46:32.669Z,94613.81
2022-12-13T14:49:39.041Z,94622.31
2022-12-13T14:52:43.562Z,94616.59
2022-12-13T14:56:03.693Z,94622.63
2022-12-13T14:59:13.309Z,94611.16
2022-12-13T15:02:17.414Z,94609.94
2022-12-13T15:05:35.532Z,94611.72
2022-12-13T15:08:38.809Z,94597.19
2022-12-13T15:11:41.795Z,94602.53
2022-12-13T15:14:48.220Z,94587.00
2022-12-13T15:18:05.760Z,94591.50
2022-12-13T15:21:21.185Z,94596.19
2022-12-13T15:24:28.232Z,94605.28
2022-12-13T15:27:30.497Z,94596.50
2022-12-13T15:30:35.483Z,94593.56
2022-12-13T15:33:44.083Z,94604.09
2022-12-13T15:36:51.183Z,94602.63
2022-12-13T15:39:57.521Z,94614.19
2022-12-13T15:42:59.555Z,94608.38
2022-12-13T15:46:02.111Z,94606.88
2022-12-13T15:49:06.201Z,94601.97
2022-12-13T15:52:25.504Z,94603.59
2022-12-13T15:55:33.694Z,94611.19
2022-12-13T15:58:37.326Z,94605.75
2022-12-13T16:01:39.338Z,94591.41
2022-12-13T16:04:41.411Z,94599.31
2022-12-13T16:07:43.533Z,94610.13
2022-12-13T16:10:48.562Z,94591.25
2022-12-13T16:13:50.481Z,94598.44
2022-12-13T16:17:08.533Z,94601.38
2022-12-13T16:20:14.157Z,94590.06
2022-12-13T16:23:26.837Z,94584.84
2022-12-13T16:26:30.962Z,94579.09
2022-12-13T16:29:33.314Z,94582.78
2022-12-13T16:32:49.609Z,94593.81
2022-12-13T16:35:57.268Z,94590.88
2022-12-13T16:38:59.160Z,94592.22
2022-12-13T16:42:03.128Z,94592.72
2022-12-13T16:45:40.102Z,94590.91
2022-12-13T16:48:28.859Z,94588.88
2022-12-13T16:51:31.229Z,94590.03
2022-12-13T16:54:33.592Z,94576.38
2022-12-13T16:57:37.807Z,94581.69
2022-12-13T17:00:41.141Z,94583.56
2022-12-13T17:03:43.404Z,94593.72
2022-12-13T17:06:46.470Z,94598.06
2022-12-13T17:09:48.710Z,94590.44
2022-12-13T17:12:53.478Z,94582.63
2022-12-13T17:15:58.971Z,94581.56
2022-12-13T17:19:02.183Z,94585.91
2022-12-13T17:22:04.463Z,94579.56
2022-12-13T17:25:08.035Z,94587.63
2022-12-13T17:28:13.183Z,94589.25
2022-12-13T17:31:16.936Z,94581.22
2022-12-13T17:34:19.829Z,94583.56
2022-12-13T17:37:23.014Z,94590.06
2022-12-13T17:40:25.791Z,94582.28
2022-12-13T17:43:34.363Z,94576.09
2022-12-13T17:46:37.967Z,94574.44
2022-12-13T17:49:40.627Z,94562.06
2022-12-13T17:52:42.885Z,94566.38
2022-12-13T17:55:45.161Z,94559.91
2022-12-13T17:58:48.621Z,94552.75
2022-12-13T18:01:51.623Z,94545.59
2022-12-13T18:04:54.099Z,94546.38
2022-12-13T18:07:56.537Z,94553.66
2022-12-13T18:11:30.778Z,94551.19
2022-12-13T18:14:23.169Z,94550.66
2022-12-13T18:17:46.759Z,94545.03
2022-12-13T18:20:49.253Z,94545.22
2022-12-13T18:23:54.972Z,94540.59
2022-12-13T18:26:59.109Z,94534.50
2022-12-13T18:30:03.260Z,94538.03
2022-12-13T18:33:08.645Z,94534.00
2022-12-13T18:36:11.579Z,94541.63
2022-12-13T18:39:15.385Z,94538.94
2022-12-13T18:42:18.744Z,94531.66
2022-12-13T18:45:23.663Z,94538.94
2022-12-13T18:48:32.705Z,94544.84
2022-12-13T18:51:36.854Z,94541.41
2022-12-13T18:54:39.966Z,94549.03
2022-12-13T18:57:42.733Z,94544.28
2022-12-13T19:00:46.668Z,94538.31
2022-12-13T19:03:50.595Z,94533.81
2022-12-13T19:07:01.123Z,94533.06
2022-12-13T19:10:03.792Z,94533.41
2022-12-13T19:13:06.267Z,94533.06
2022-12-13T19:16:12.906Z,94530.94
2022-12-13T19:19:15.771Z,94524.19
2022-12-13T19:22:18.528Z,94531.03
2022-12-13T19:25:21.730Z,94532.59
2022-12-13T19:28:24.420Z,94523.28
2022-12-13T19:31:32.685Z,94524.94
2022-12-13T19:34:36.777Z,94522.69
2022-12-13T19:37:40.498Z,94518.66
2022-12-13T19:40:43.866Z,94515.25
2022-12-13T19:43:52.451Z,94507.75
2022-12-13T19:46:57.943Z,94499.91
2022-12-13T19:50:01.450Z,94505.94
2022-12-13T19:53:05.345Z,94508.13
2022-12-13T19:56:10.328Z,94503.19
2022-12-13T19:59:14.217Z,94496.69
2022-12-13T20:02:20.741Z,94494.91
2022-12-13T20:05:27.182Z,94490.13
2022-12-13T20:08:31.372Z,94494.38
2022-12-13T20:11:34.325Z,94493.56
2022-12-13T20:14:37.572Z,94485.03
2022-12-13T20:17:42.762Z,94486.59
2022-12-13T20:21:10.543Z,94484.09
2022-12-13T20:24:12.501Z,94476.31
2022-12-13T20:27:15.120Z,94469.94
2022-12-13T20:30:19.086Z,94466.53
2022-12-13T20:33:23.919Z,94462.22
2022-12-13T20:36:28.437Z,94472.69
2022-12-13T20:39:32.778Z,94478.25
2022-12-13T20:42:35.717Z,94468.00
2022-12-13T20:45:38.992Z,94466.28
2022-12-13T20:48:45.845Z,94468.81
2022-12-13T20:51:52.031Z,94470.69
2022-12-13T20:54:55.087Z,94457.78
2022-12-13T20:57:57.610Z,94462.47
2022-12-13T21:01:02.764Z,94448.16
2022-12-13T21:04:09.053Z,94457.34
2022-12-13T21:07:11.260Z,94463.97
2022-12-13T21:10:15.774Z,94448.81
2022-12-13T21:13:18.112Z,94456.28
2022-12-13T21:16:21.565Z,94443.75
2022-12-13T21:19:26.791Z,94433.06
2022-12-13T21:22:28.693Z,94446.69
2022-12-13T21:25:30.995Z,94441.00
2022-12-13T21:28:33.171Z,94445.66
2022-12-13T21:31:36.622Z,94440.69
2022-12-13T21:34:40.276Z,94432.47
2022-12-13T21:37:42.303Z,94433.78
2022-12-13T21:40:50.621Z,94430.69
2022-12-13T21:43:52.830Z,94415.53
2022-12-13T21:50:18.103Z,94395.91
2022-12-13T21:53:19.987Z,94396.47
2022-12-13T21:56:24.092Z,94389.13
2022-12-13T21:59:27.742Z,94390.06
2022-12-13T22:02:29.644Z,94391.78
2022-12-13T22:05:33.193Z,94387.78
2022-12-13T22:08:35.076Z,94385.84
2022-12-13T22:11:37.158Z,94378.88
2022-12-13T22:14:39.044Z,94382.34
2022-12-13T22:17:41.539Z,94380.53
2022-12-13T22:20:44.859Z,94371.81
2022-12-13T22:23:47.089Z,94377.06
2022-12-13T22:26:48.957Z,94376.75
2022-12-13T22:29:51.412Z,94360.81
2022-12-13T22:32:53.356Z,94361.56
2022-12-13T22:35:56.575Z,94353.25
2022-12-13T22:38:58.484Z,94356.69
2022-12-13T22:42:00.376Z,94360.72
2022-12-13T22:45:02.456Z,94368.63
2022-12-13T22:48:04.916Z,94365.16
2022-12-13T22:51:10.339Z,94350.34
2022-12-13T22:54:12.177Z,94351.31
2022-12-13T22:57:14.175Z,94338.84
2022-12-13T23:00:16.448Z,94334.59
2022-12-13T23:03:18.369Z,94349.31
2022-12-13T23:06:23.728Z,94331.34
2022-12-13T23:09:25.617Z,94325.06
2022-12-13T23:12:27.656Z,94315.44
2022-12-13T23:15:30.031Z,94310.94
2022-12-13T23:18:31.910Z,94298.44
2022-12-13T23:21:35.160Z,94306.31
2022-12-13T23:24:37.123Z,94296.72
2022-12-13T23:27:38.991Z,94297.53
2022-12-13T23:30:40.895Z,94295.28
2022-12-13T23:33:43.070Z,94301.22
2022-12-13T23:36:46.374Z,94295.38
2022-12-13T23:39:48.315Z,94286.69
2022-12-13T23:42:50.229Z,94294.25
2022-12-13T23:45:52.266Z,94300.28
2022-12-13T23:48:54.121Z,94297.91
2022-12-13T23:51:57.414Z,94280.94
2022-12-13T23:54:59.263Z,94281.22
2022-12-13T23:58:01.143Z,94263.66
